Pemaquid Point Lighthouse, ME

43° 50' 13"N, 69° 30' 22"W, Elevation 40 ft.
Eastern Time

Hourly observations for the last 72 hours

Date Time Temperature (°F) Humi-
dity

(%)
Wind
(mph)
Pressure Rain (in) Sun
(W/m2)
UV ET
(in)
Air Dew 6 Hour 1 Hr 3 Hr 6 Hr Day
Alt
(in)
Sea
Level

(mb)
Max Min
19 23:00 34.3 25.5 70 W 13 G 22 29.52 999.7 0.74 0 0.0 0.036
19 22:00 34.4 25.3 69 W 11 G 20 29.50 999.1 0.74 0 0.0 0.034
19 21:00 35.0 25.5 68 W 16 G 30 29.46 997.7 0.74 0 0.0 0.031
19 20:00 35.9 26.0 67 W 21 G 28 29.41 995.9 0.74 0 0.0 0.028
19 19:00 37.2 27.6 53.3 37.2 68 W 19 G 28 29.37 994.6 0.01 0.74 0 0.0 0.025
19 18:00 38.7 29.4 69 WNW 18 G 30 29.31 992.5 0.74 0 0.0 0.022
19 17:00 41.0 32.3 71 W 18 G 31 29.26 990.9 0.74 0 0.0 0.019
19 16:00 44.3 36.9 75 WNW 17 G 31 29.17 988.0 0.01 0.74 7 0.0 0.017
19 15:00 50.6 46.6 86 WNW 20 G 32 29.09 985.0 0.01 0.74 11 0.0 0.015
19 14:00 52.5 51.4 96 WSW 10 G 24 29.02 982.8 0.73 113 0.5 0.013
19 13:00 52.5 51.4 54.2 52.5 96 SSW 24 G 32 29.01 982.6 0.02 0.14 0.46 0.73 65 0.0 0.011
19 12:00 53.7 52.9 97 SSW 25 G 32 29.04 983.3 0.02 0.71 76 0.5 0.010
19 11:00 54.1 53.3 97 SSW 27 G 35 29.07 984.5 0.10 0.69 88 0.5 0.008
19 10:00 54.0 53.2 97 S 28 G 34 29.11 985.8 0.03 0.32 0.59 26 0.0 0.007
19 09:00 53.8 52.7 96 SSW 25 G 31 29.14 986.8 0.18 0.56 33 0.0 0.006
19 08:00 54.0 52.9 96 S 27 G 32 29.17 987.9 0.11 0.38 7 0.0 0.005
19 07:00 53.7 52.6 53.7 50.6 96 S 23 G 28 29.19 988.6 0.08 0.16 0.27 0.27 7 0.0 0.004
19 06:00 53.4 52.0 95 S 25 G 30 29.23 989.9 0.07 0.19 0 0.0 0.003
19 05:00 52.3 51.2 96 SSE 19 G 25 29.27 991.4 0.01 0.12 0 0.0 0.003
19 04:00 51.3 50.2 96 S 17 G 19 29.33 993.1 0.03 0.11 0.11 0 0.0 0.003
19 03:00 50.7 49.3 95 SSW 15 G 22 29.37 994.6 0.05 0.08 0 0.0 0.002
19 02:00 51.6 49.9 94 SSW 25 G 32 29.41 996.1 0.03 0.03 0 0.0 0.001
19 01:00 50.6 48.7 50.9 46.3 93 SSE 14 G 19 29.45 997.3 0.09 0.11 0.00 0 0.0 0.000
19 00:00 50.7 48.5 92 S 19 G 25 29.49 998.8 0.02 0.11 0 0.0 0.063
18 23:00 50.3 48.6 94 SSE 22 G 30 29.54 1000.4 0.07 0.09 0 0.0 0.062
18 22:00 49.6 47.1 91 SSE 22 G 28 29.58 1001.8 0.02 0.02 0 0.0 0.061
18 21:00 48.1 45.0 89 SSE 23 G 28 29.62 1003.0 0.01 0.02 0 0.0 0.060
18 20:00 46.9 42.3 84 S 18 G 23 29.67 1004.8 0.01 0.01 0 0.0 0.058
18 19:00 46.3 38.1 46.4 40.2 73 SSW 17 G 20 29.70 1006.0 0.00 0 0.0 0.055
18 18:00 45.6 33.7 63 S 16 G 21 29.72 1006.3 0.00 0 0.0 0.052
18 17:00 43.8 32.8 65 S 15 G 17 29.74 1007.0 0.00 0 0.0 0.049
18 16:00 43.3 33.5 68 SSW 12 G 15 29.77 1008.2 0.00 0 0.0 0.046
18 15:00 42.3 28.6 58 SSE 11 G 15 29.78 1008.4 0.00 35 0.0 0.043
18 14:00 41.2 26.7 56 S 7 G 12 29.80 1009.2 0.00 123 0.0 0.039
18 13:00 40.4 25.5 42.5 28.7 55 S 7 G 10 29.82 1010.0 0.00 118 0.5 0.034
18 12:00 41.6 24.3 50 SSW 4 G 7 29.85 1011.0 0.00 374 1.2 0.027
18 11:00 40.0 17.0 39 W 3 G 7 29.87 1011.7 0.00 390 1.5 0.020
18 10:00 36.6 16.7 44 N 3 G 8 29.91 1012.9 0.00 466 1.2 0.015
18 09:00 32.8 18.4 55 WNW 3 G 8 29.93 1013.7 0.00 37 0.0 0.014
18 08:00 30.3 17.7 59 WNW 5 G 11 29.94 1014.0 0.00 26 0.0 0.013
18 07:00 28.7 16.2 31.0 28.5 59 NW 6 G 12 29.92 1013.4 0.00 12 0.0 0.012
18 06:00 29.0 16.5 59 NNW 3 G 18 29.92 1013.1 0.00 0 0.0 0.010
18 05:00 29.9 17.7 60 WNW 14 G 21 29.89 1012.1 0.00 0 0.0 0.008
18 04:00 30.3 17.7 59 WNW 15 G 26 29.89 1012.3 0.00 0 0.0 0.006
18 03:00 30.7 18.5 60 WNW 15 G 24 29.90 1012.5 0.00 0 0.0 0.004
18 02:00 30.2 18.7 62 WNW 15 G 24 29.90 1012.7 0.00 0 0.0 0.002
18 01:00 29.8 19.1 31.4 29.4 64 WNW 17 G 23 29.91 1012.9 0.00 0 0.0 0.000
18 00:00 29.8 19.8 66 W 12 G 26 29.92 1013.1 0.01 0 0.0 0.076
17 23:00 30.3 20.3 66 W 15 G 26 29.93 1013.5 0.01 0 0.0 0.074
17 22:00 30.5 20.5 66 W 14 G 21 29.91 1012.7 0.01 0 0.0 0.072
17 21:00 30.8 20.8 66 WNW 12 G 25 29.91 1012.8 0.01 0 0.0 0.070
17 20:00 31.3 22.0 68 W 12 G 25 29.91 1012.8 0.01 0 0.0 0.068
17 19:00 31.3 21.6 39.5 31.3 67 W 15 G 22 29.88 1011.9 0.01 0 0.0 0.066
17 18:00 32.0 22.6 68 W 10 G 24 29.87 1011.6 0.01 0 0.0 0.064
17 17:00 33.9 24.1 67 WNW 14 G 29 29.84 1010.4 0.01 0 0.0 0.061
17 16:00 35.6 24.2 63 WNW 22 G 31 29.81 1009.3 0.01 11 0.0 0.057
17 15:00 38.0 25.7 61 NW 21 G 32 29.77 1008.3 0.01 74 0.0 0.052
17 14:00 38.1 26.6 63 WNW 20 G 37 29.74 1007.2 0.01 49 0.0 0.044
17 13:00 39.5 28.7 41.7 38.2 65 WNW 22 G 38 29.73 1006.9 0.01 0.01 302 0.9 0.035
17 12:00 39.8 29.4 66 WNW 20 G 39 29.73 1006.8 0.01 508 1.3 0.024
17 11:00 40.8 30.0 65 WNW 22 G 41 29.72 1006.3 0.01 410 1.3 0.014
17 10:00 39.7 30.0 68 WNW 25 G 38 29.70 1005.7 0.01 0.01 462 1.0 0.007
17 09:00 39.7 31.4 72 WNW 21 G 36 29.69 1005.4 0.01 53 0.0 0.004
17 08:00 38.6 33.0 80 WNW 21 G 33 29.66 1004.5 0.01 0.01 35 0.0 0.002
17 07:00 38.3 34.2 39.8 37.7 85 WNW 13 G 24 29.65 1003.9 0.00 18 0.0 0.001
17 06:00 38.5 35.3 88 WNW 14 G 24 29.62 1003.2 0.00 0 0.0 0.000
17 05:00 38.2 36.4 93 WNW 15 G 24 29.60 1002.5 0.00 0 0.0 0.000
17 04:00 37.8 36.2 94 W 10 G 16 29.60 1002.5 0.00 0 0.0 0.000
17 03:00 38.8 37.0 93 W 9 G 15 29.59 1002.1 0.00 0 0.0 0.000
17 02:00 39.4 37.8 94 W 11 G 17 29.59 1001.9 0.00 0 0.0 0.000
17 01:00 38.2 36.6 42.2 38.1 94 W 8 G 14 29.58 1001.8 0.08 0.00 0 0.0 0.000
17 00:00 38.4 36.8 94 WNW 9 G 15 29.59 1002.1 0.52 0 0.0 0.045

Data generated by WxSolution Version 1.9.0.6, Build 2017.01.14.